sensor_id;sensor_type;location;lat;lon;timestamp;temperature;humidity
37356;DHT22;48747;50.250;18.848;2024-01-30T00:01:32;0.60;99.90
37356;DHT22;48747;50.250;18.848;2024-01-30T00:03:35;0.60;99.90
37356;DHT22;48747;50.250;18.848;2024-01-30T00:05:38;0.60;99.90
37356;DHT22;48747;50.250;18.848;2024-01-30T00:07:41;0.50;99.90
37356;DHT22;48747;50.250;18.848;2024-01-30T00:09:46;0.50;99.90
37356;DHT22;48747;50.250;18.848;2024-01-30T00:11:50;0.50;99.90
37356;DHT22;48747;50.250;18.848;2024-01-30T00:13:53;0.50;99.90
37356;DHT22;48747;50.250;18.848;2024-01-30T00:15:57;0.50;99.90
37356;DHT22;48747;50.250;18.848;2024-01-30T00:18:01;0.50;99.90
37356;DHT22;48747;50.250;18.848;2024-01-30T00:20:04;0.50;99.90
37356;DHT22;48747;50.250;18.848;2024-01-30T00:22:07;0.40;99.90
37356;DHT22;48747;50.250;18.848;2024-01-30T00:24:10;0.40;99.90
37356;DHT22;48747;50.250;18.848;2024-01-30T00:26:14;0.30;99.90
37356;DHT22;48747;50.250;18.848;2024-01-30T00:28:17;0.30;99.90
37356;DHT22;48747;50.250;18.848;2024-01-30T00:30:20;0.20;99.90
37356;DHT22;48747;50.250;18.848;2024-01-30T00:32:23;0.20;99.90
37356;DHT22;48747;50.250;18.848;2024-01-30T00:34:26;0.10;99.90
37356;DHT22;48747;50.250;18.848;2024-01-30T00:36:29;0.10;99.90
37356;DHT22;48747;50.250;18.848;2024-01-30T00:38:32;0.00;99.90
37356;DHT22;48747;50.250;18.848;2024-01-30T00:40:35;0.00;99.90
37356;DHT22;48747;50.250;18.848;2024-01-30T00:42:38;0.00;99.90
37356;DHT22;48747;50.250;18.848;2024-01-30T00:44:42;0.00;99.90
37356;DHT22;48747;50.250;18.848;2024-01-30T00:46:45;0.00;99.90
37356;DHT22;48747;50.250;18.848;2024-01-30T00:48:48;0.00;99.90
37356;DHT22;48747;50.250;18.848;2024-01-30T00:50:51;0.00;99.90
37356;DHT22;48747;50.250;18.848;2024-01-30T00:52:54;0.00;99.90
37356;DHT22;48747;50.250;18.848;2024-01-30T00:54:57;0.00;99.90
37356;DHT22;48747;50.250;18.848;2024-01-30T00:57:00;0.10;99.90
37356;DHT22;48747;50.250;18.848;2024-01-30T00:59:03;0.00;99.90
37356;DHT22;48747;50.250;18.848;2024-01-30T01:01:07;0.00;99.90
37356;DHT22;48747;50.250;18.848;2024-01-30T01:03:10;0.00;99.90
37356;DHT22;48747;50.250;18.848;2024-01-30T01:05:13;0.00;99.90
37356;DHT22;48747;50.250;18.848;2024-01-30T01:07:16;0.00;99.90
37356;DHT22;48747;50.250;18.848;2024-01-30T01:09:19;0.00;99.90
37356;DHT22;48747;50.250;18.848;2024-01-30T01:11:22;0.00;99.90
37356;DHT22;48747;50.250;18.848;2024-01-30T01:13:25;-0.10;99.90
37356;DHT22;48747;50.250;18.848;2024-01-30T01:15:28;-0.10;99.90
37356;DHT22;48747;50.250;18.848;2024-01-30T01:17:31;-0.10;99.90
37356;DHT22;48747;50.250;18.848;2024-01-30T01:19:34;0.00;99.90
37356;DHT22;48747;50.250;18.848;2024-01-30T01:21:37;0.00;99.90
37356;DHT22;48747;50.250;18.848;2024-01-30T01:23:40;0.10;99.90
37356;DHT22;48747;50.250;18.848;2024-01-30T01:25:43;0.10;99.90
37356;DHT22;48747;50.250;18.848;2024-01-30T01:27:46;0.10;99.90
37356;DHT22;48747;50.250;18.848;2024-01-30T01:29:51;0.10;99.90
37356;DHT22;48747;50.250;18.848;2024-01-30T01:31:56;0.10;99.90
37356;DHT22;48747;50.250;18.848;2024-01-30T01:33:59;0.10;99.90
37356;DHT22;48747;50.250;18.848;2024-01-30T01:36:02;0.00;99.90
37356;DHT22;48747;50.250;18.848;2024-01-30T01:38:06;0.10;99.90
37356;DHT22;48747;50.250;18.848;2024-01-30T01:40:09;0.10;99.90
37356;DHT22;48747;50.250;18.848;2024-01-30T01:42:12;0.00;99.90
37356;DHT22;48747;50.250;18.848;2024-01-30T01:44:15;0.00;99.90
37356;DHT22;48747;50.250;18.848;2024-01-30T01:46:18;0.00;99.90
37356;DHT22;48747;50.250;18.848;2024-01-30T01:48:21;0.00;99.90
37356;DHT22;48747;50.250;18.848;2024-01-30T01:50:24;-0.10;99.90
37356;DHT22;48747;50.250;18.848;2024-01-30T01:52:29;-0.10;99.90
37356;DHT22;48747;50.250;18.848;2024-01-30T01:54:32;0.00;99.90
37356;DHT22;48747;50.250;18.848;2024-01-30T01:56:36;0.00;99.90
37356;DHT22;48747;50.250;18.848;2024-01-30T01:58:40;0.00;99.90
37356;DHT22;48747;50.250;18.848;2024-01-30T02:00:44;0.10;99.90
37356;DHT22;48747;50.250;18.848;2024-01-30T02:02:47;0.10;99.90
37356;DHT22;48747;50.250;18.848;2024-01-30T02:04:50;0.20;99.90
37356;DHT22;48747;50.250;18.848;2024-01-30T02:06:53;0.20;99.90
37356;DHT22;48747;50.250;18.848;2024-01-30T02:08:56;0.20;99.90
37356;DHT22;48747;50.250;18.848;2024-01-30T02:11:00;0.30;99.90
37356;DHT22;48747;50.250;18.848;2024-01-30T02:13:03;0.30;99.90
37356;DHT22;48747;50.250;18.848;2024-01-30T02:15:06;0.30;99.90
37356;DHT22;48747;50.250;18.848;2024-01-30T02:17:09;0.30;99.90
37356;DHT22;48747;50.250;18.848;2024-01-30T02:19:14;0.30;99.90
37356;DHT22;48747;50.250;18.848;2024-01-30T02:21:18;0.30;99.90
37356;DHT22;48747;50.250;18.848;2024-01-30T02:23:24;0.20;99.90
37356;DHT22;48747;50.250;18.848;2024-01-30T02:25:40;0.20;99.90
37356;DHT22;48747;50.250;18.848;2024-01-30T02:27:47;0.20;99.90
37356;DHT22;48747;50.250;18.848;2024-01-30T02:29:50;0.20;99.90
37356;DHT22;48747;50.250;18.848;2024-01-30T02:31:54;0.20;99.90
37356;DHT22;48747;50.250;18.848;2024-01-30T02:33:57;0.20;99.90
37356;DHT22;48747;50.250;18.848;2024-01-30T02:36:00;0.20;99.90
37356;DHT22;48747;50.250;18.848;2024-01-30T02:38:03;0.20;99.90
37356;DHT22;48747;50.250;18.848;2024-01-30T02:40:07;0.20;99.90
37356;DHT22;48747;50.250;18.848;2024-01-30T02:42:10;0.20;99.90
37356;DHT22;48747;50.250;18.848;2024-01-30T02:44:13;0.10;99.90
37356;DHT22;48747;50.250;18.848;2024-01-30T02:46:18;0.10;99.90
37356;DHT22;48747;50.250;18.848;2024-01-30T02:48:21;0.00;99.90
37356;DHT22;48747;50.250;18.848;2024-01-30T02:50:24;0.00;99.90
37356;DHT22;48747;50.250;18.848;2024-01-30T02:52:27;0.00;99.90
37356;DHT22;48747;50.250;18.848;2024-01-30T02:54:30;0.00;99.90
37356;DHT22;48747;50.250;18.848;2024-01-30T02:56:33;0.00;99.90
37356;DHT22;48747;50.250;18.848;2024-01-30T02:58:36;0.00;99.90
37356;DHT22;48747;50.250;18.848;2024-01-30T03:00:39;0.00;99.90
37356;DHT22;48747;50.250;18.848;2024-01-30T03:02:44;0.00;99.90
37356;DHT22;48747;50.250;18.848;2024-01-30T03:04:47;0.00;99.90
37356;DHT22;48747;50.250;18.848;2024-01-30T03:06:50;-0.10;99.90
37356;DHT22;48747;50.250;18.848;2024-01-30T03:08:53;-0.10;99.90
37356;DHT22;48747;50.250;18.848;2024-01-30T03:10:56;-0.10;99.90
37356;DHT22;48747;50.250;18.848;2024-01-30T03:12:59;-0.20;99.90
37356;DHT22;48747;50.250;18.848;2024-01-30T03:15:02;-0.20;99.90
37356;DHT22;48747;50.250;18.848;2024-01-30T03:17:05;-0.20;99.90
37356;DHT22;48747;50.250;18.848;2024-01-30T03:19:08;-0.10;99.90
37356;DHT22;48747;50.250;18.848;2024-01-30T03:21:11;-0.10;99.90
37356;DHT22;48747;50.250;18.848;2024-01-30T03:23:14;-0.10;99.90
37356;DHT22;48747;50.250;18.848;2024-01-30T03:25:17;-0.10;99.90
37356;DHT22;48747;50.250;18.848;2024-01-30T03:27:20;-0.10;99.90
37356;DHT22;48747;50.250;18.848;2024-01-30T03:29:23;-0.10;99.90
37356;DHT22;48747;50.250;18.848;2024-01-30T03:31:26;-0.10;99.90
37356;DHT22;48747;50.250;18.848;2024-01-30T03:33:29;-0.10;99.90
37356;DHT22;48747;50.250;18.848;2024-01-30T03:35:34;0.00;99.90
37356;DHT22;48747;50.250;18.848;2024-01-30T03:37:37;0.00;99.90
37356;DHT22;48747;50.250;18.848;2024-01-30T03:39:40;0.10;99.90
37356;DHT22;48747;50.250;18.848;2024-01-30T03:41:43;0.10;99.90
37356;DHT22;48747;50.250;18.848;2024-01-30T03:43:47;0.10;99.90
37356;DHT22;48747;50.250;18.848;2024-01-30T03:45:50;0.20;99.90
37356;DHT22;48747;50.250;18.848;2024-01-30T03:47:53;0.20;99.90
37356;DHT22;48747;50.250;18.848;2024-01-30T03:49:56;0.20;99.90
37356;DHT22;48747;50.250;18.848;2024-01-30T03:51:59;0.20;99.90
37356;DHT22;48747;50.250;18.848;2024-01-30T03:54:02;0.20;99.90
37356;DHT22;48747;50.250;18.848;2024-01-30T03:56:05;0.30;99.90
37356;DHT22;48747;50.250;18.848;2024-01-30T03:58:08;0.20;99.90
37356;DHT22;48747;50.250;18.848;2024-01-30T04:00:12;0.20;99.90
37356;DHT22;48747;50.250;18.848;2024-01-30T04:02:16;0.20;99.90
37356;DHT22;48747;50.250;18.848;2024-01-30T04:04:20;0.20;99.90
37356;DHT22;48747;50.250;18.848;2024-01-30T04:06:23;0.20;99.90
37356;DHT22;48747;50.250;18.848;2024-01-30T04:08:26;0.20;99.90
37356;DHT22;48747;50.250;18.848;2024-01-30T04:10:29;0.30;99.90
37356;DHT22;48747;50.250;18.848;2024-01-30T04:12:32;0.30;99.90
37356;DHT22;48747;50.250;18.848;2024-01-30T04:14:37;0.30;99.90
37356;DHT22;48747;50.250;18.848;2024-01-30T04:16:40;0.40;99.90
37356;DHT22;48747;50.250;18.848;2024-01-30T04:18:46;0.40;99.90
37356;DHT22;48747;50.250;18.848;2024-01-30T04:20:47;0.40;99.90
37356;DHT22;48747;50.250;18.848;2024-01-30T04:22:50;0.40;99.90
37356;DHT22;48747;50.250;18.848;2024-01-30T04:24:53;0.40;99.90
37356;DHT22;48747;50.250;18.848;2024-01-30T04:26:56;0.40;99.90
37356;DHT22;48747;50.250;18.848;2024-01-30T04:28:59;0.40;99.90
37356;DHT22;48747;50.250;18.848;2024-01-30T04:31:02;0.30;99.90
37356;DHT22;48747;50.250;18.848;2024-01-30T04:33:05;0.40;99.90
37356;DHT22;48747;50.250;18.848;2024-01-30T04:35:08;0.30;99.90
37356;DHT22;48747;50.250;18.848;2024-01-30T04:37:11;0.30;99.90
37356;DHT22;48747;50.250;18.848;2024-01-30T04:39:14;0.30;99.90
37356;DHT22;48747;50.250;18.848;2024-01-30T04:41:17;0.30;99.90
37356;DHT22;48747;50.250;18.848;2024-01-30T04:43:20;0.30;99.90
37356;DHT22;48747;50.250;18.848;2024-01-30T04:45:23;0.30;99.90
37356;DHT22;48747;50.250;18.848;2024-01-30T04:47:26;0.30;99.90
37356;DHT22;48747;50.250;18.848;2024-01-30T04:49:29;0.20;99.90
37356;DHT22;48747;50.250;18.848;2024-01-30T04:51:32;0.20;99.90
37356;DHT22;48747;50.250;18.848;2024-01-30T04:53:35;0.10;99.90
37356;DHT22;48747;50.250;18.848;2024-01-30T04:55:38;0.10;99.90
37356;DHT22;48747;50.250;18.848;2024-01-30T04:57:41;0.10;99.90
37356;DHT22;48747;50.250;18.848;2024-01-30T04:59:44;0.10;99.90
37356;DHT22;48747;50.250;18.848;2024-01-30T05:01:48;0.10;99.90
37356;DHT22;48747;50.250;18.848;2024-01-30T05:03:56;0.10;99.90
37356;DHT22;48747;50.250;18.848;2024-01-30T05:05:55;0.10;99.90
37356;DHT22;48747;50.250;18.848;2024-01-30T05:07:58;0.10;99.90
37356;DHT22;48747;50.250;18.848;2024-01-30T05:10:01;0.00;99.90
37356;DHT22;48747;50.250;18.848;2024-01-30T05:12:05;0.00;99.90
37356;DHT22;48747;50.250;18.848;2024-01-30T05:14:08;0.00;99.90
37356;DHT22;48747;50.250;18.848;2024-01-30T05:16:13;0.00;99.90
37356;DHT22;48747;50.250;18.848;2024-01-30T05:18:16;0.00;99.90
37356;DHT22;48747;50.250;18.848;2024-01-30T05:20:20;0.00;99.90
37356;DHT22;48747;50.250;18.848;2024-01-30T05:22:23;-0.10;99.90
37356;DHT22;48747;50.250;18.848;2024-01-30T05:24:26;-0.10;99.90
37356;DHT22;48747;50.250;18.848;2024-01-30T05:26:29;0.00;99.90
37356;DHT22;48747;50.250;18.848;2024-01-30T05:28:32;0.00;99.90
37356;DHT22;48747;50.250;18.848;2024-01-30T05:30:35;0.00;99.90
37356;DHT22;48747;50.250;18.848;2024-01-30T05:32:38;0.00;99.90
37356;DHT22;48747;50.250;18.848;2024-01-30T05:34:41;0.00;99.90
37356;DHT22;48747;50.250;18.848;2024-01-30T05:36:44;0.00;99.90
37356;DHT22;48747;50.250;18.848;2024-01-30T05:38:47;0.00;99.90
37356;DHT22;48747;50.250;18.848;2024-01-30T05:40:50;0.00;99.90
37356;DHT22;48747;50.250;18.848;2024-01-30T05:42:53;0.10;99.90
37356;DHT22;48747;50.250;18.848;2024-01-30T05:44:56;0.10;99.90
37356;DHT22;48747;50.250;18.848;2024-01-30T05:46:59;0.20;99.90
37356;DHT22;48747;50.250;18.848;2024-01-30T05:49:02;0.20;99.90
37356;DHT22;48747;50.250;18.848;2024-01-30T05:51:06;0.20;99.90
37356;DHT22;48747;50.250;18.848;2024-01-30T05:53:09;0.20;99.90
37356;DHT22;48747;50.250;18.848;2024-01-30T05:55:12;0.20;99.90
37356;DHT22;48747;50.250;18.848;2024-01-30T05:57:15;0.20;99.90
37356;DHT22;48747;50.250;18.848;2024-01-30T05:59:18;0.20;99.90
37356;DHT22;48747;50.250;18.848;2024-01-30T06:01:21;0.20;99.90
37356;DHT22;48747;50.250;18.848;2024-01-30T06:03:24;0.20;99.90
37356;DHT22;48747;50.250;18.848;2024-01-30T06:05:27;0.30;99.90
37356;DHT22;48747;50.250;18.848;2024-01-30T06:07:31;0.30;99.90
37356;DHT22;48747;50.250;18.848;2024-01-30T06:09:34;0.30;99.90
37356;DHT22;48747;50.250;18.848;2024-01-30T06:11:37;0.30;99.90
37356;DHT22;48747;50.250;18.848;2024-01-30T06:13:40;0.40;99.90
37356;DHT22;48747;50.250;18.848;2024-01-30T06:15:43;0.30;99.90
37356;DHT22;48747;50.250;18.848;2024-01-30T06:17:46;0.40;99.90
37356;DHT22;48747;50.250;18.848;2024-01-30T06:19:49;0.30;99.90
37356;DHT22;48747;50.250;18.848;2024-01-30T06:21:52;0.30;99.90
37356;DHT22;48747;50.250;18.848;2024-01-30T06:23:55;0.30;99.90
37356;DHT22;48747;50.250;18.848;2024-01-30T06:25:58;0.30;99.90
37356;DHT22;48747;50.250;18.848;2024-01-30T06:28:07;0.30;99.90
37356;DHT22;48747;50.250;18.848;2024-01-30T06:30:06;0.40;99.90
37356;DHT22;48747;50.250;18.848;2024-01-30T06:32:09;0.40;99.90
37356;DHT22;48747;50.250;18.848;2024-01-30T06:34:12;0.40;99.90
37356;DHT22;48747;50.250;18.848;2024-01-30T06:36:15;0.40;99.90
37356;DHT22;48747;50.250;18.848;2024-01-30T06:38:18;0.40;99.90
37356;DHT22;48747;50.250;18.848;2024-01-30T06:40:21;0.40;99.90
37356;DHT22;48747;50.250;18.848;2024-01-30T06:42:24;0.40;99.90
37356;DHT22;48747;50.250;18.848;2024-01-30T06:44:27;0.40;99.90
37356;DHT22;48747;50.250;18.848;2024-01-30T06:46:30;0.40;99.90
37356;DHT22;48747;50.250;18.848;2024-01-30T06:48:34;0.40;99.90
37356;DHT22;48747;50.250;18.848;2024-01-30T06:50:37;0.40;99.90
37356;DHT22;48747;50.250;18.848;2024-01-30T06:52:40;0.40;99.90
37356;DHT22;48747;50.250;18.848;2024-01-30T06:54:43;0.40;99.90
37356;DHT22;48747;50.250;18.848;2024-01-30T06:56:46;0.40;99.90
37356;DHT22;48747;50.250;18.848;2024-01-30T06:58:50;0.40;99.90
37356;DHT22;48747;50.250;18.848;2024-01-30T07:00:53;0.40;99.90
37356;DHT22;48747;50.250;18.848;2024-01-30T07:02:56;0.40;99.90
37356;DHT22;48747;50.250;18.848;2024-01-30T07:04:59;0.40;99.90
37356;DHT22;48747;50.250;18.848;2024-01-30T07:07:02;0.50;99.90
37356;DHT22;48747;50.250;18.848;2024-01-30T07:09:06;0.50;99.90
37356;DHT22;48747;50.250;18.848;2024-01-30T07:11:10;0.50;99.90
37356;DHT22;48747;50.250;18.848;2024-01-30T07:13:14;0.50;99.90
37356;DHT22;48747;50.250;18.848;2024-01-30T07:15:18;0.60;99.90
37356;DHT22;48747;50.250;18.848;2024-01-30T07:17:22;0.60;99.90
37356;DHT22;48747;50.250;18.848;2024-01-30T07:19:25;0.60;99.90
37356;DHT22;48747;50.250;18.848;2024-01-30T07:21:28;0.70;99.90
37356;DHT22;48747;50.250;18.848;2024-01-30T07:23:31;0.70;99.90
37356;DHT22;48747;50.250;18.848;2024-01-30T07:25:36;0.80;99.90
37356;DHT22;48747;50.250;18.848;2024-01-30T07:27:39;0.90;99.90
37356;DHT22;48747;50.250;18.848;2024-01-30T07:29:43;1.00;99.90
37356;DHT22;48747;50.250;18.848;2024-01-30T07:31:46;1.10;99.90
37356;DHT22;48747;50.250;18.848;2024-01-30T07:33:49;1.20;99.90
37356;DHT22;48747;50.250;18.848;2024-01-30T07:35:53;1.20;99.90
37356;DHT22;48747;50.250;18.848;2024-01-30T07:37:56;1.30;99.90
37356;DHT22;48747;50.250;18.848;2024-01-30T07:40:00;1.40;99.90
37356;DHT22;48747;50.250;18.848;2024-01-30T07:42:04;1.50;99.90
37356;DHT22;48747;50.250;18.848;2024-01-30T07:44:07;1.60;99.90
37356;DHT22;48747;50.250;18.848;2024-01-30T07:46:10;1.70;99.90
37356;DHT22;48747;50.250;18.848;2024-01-30T07:48:13;1.70;99.90
37356;DHT22;48747;50.250;18.848;2024-01-30T07:50:16;1.70;99.90
37356;DHT22;48747;50.250;18.848;2024-01-30T07:52:20;1.80;99.90
37356;DHT22;48747;50.250;18.848;2024-01-30T07:54:27;1.90;99.90
37356;DHT22;48747;50.250;18.848;2024-01-30T07:56:28;1.90;99.90
37356;DHT22;48747;50.250;18.848;2024-01-30T07:58:31;2.00;99.90
37356;DHT22;48747;50.250;18.848;2024-01-30T08:00:37;2.10;99.90
37356;DHT22;48747;50.250;18.848;2024-01-30T08:02:41;2.10;99.90
37356;DHT22;48747;50.250;18.848;2024-01-30T08:04:44;2.10;99.90
37356;DHT22;48747;50.250;18.848;2024-01-30T08:06:49;2.20;99.90
37356;DHT22;48747;50.250;18.848;2024-01-30T08:08:54;2.30;99.90
37356;DHT22;48747;50.250;18.848;2024-01-30T08:10:57;2.40;99.90
37356;DHT22;48747;50.250;18.848;2024-01-30T08:13:00;2.50;99.90
37356;DHT22;48747;50.250;18.848;2024-01-30T08:15:04;2.50;99.90
37356;DHT22;48747;50.250;18.848;2024-01-30T08:17:07;2.60;99.90
37356;DHT22;48747;50.250;18.848;2024-01-30T08:19:10;2.60;99.90
37356;DHT22;48747;50.250;18.848;2024-01-30T08:21:14;2.70;99.90
37356;DHT22;48747;50.250;18.848;2024-01-30T08:23:17;2.80;99.90
37356;DHT22;48747;50.250;18.848;2024-01-30T08:25:20;2.80;99.90
37356;DHT22;48747;50.250;18.848;2024-01-30T08:27:23;2.90;99.90
37356;DHT22;48747;50.250;18.848;2024-01-30T08:29:27;2.90;99.90
37356;DHT22;48747;50.250;18.848;2024-01-30T08:31:30;3.00;99.90
37356;DHT22;48747;50.250;18.848;2024-01-30T08:33:33;3.00;99.90
37356;DHT22;48747;50.250;18.848;2024-01-30T08:35:36;3.10;99.90
37356;DHT22;48747;50.250;18.848;2024-01-30T08:37:40;3.10;99.90
37356;DHT22;48747;50.250;18.848;2024-01-30T08:39:44;3.20;99.90
37356;DHT22;48747;50.250;18.848;2024-01-30T08:41:47;3.20;99.90
37356;DHT22;48747;50.250;18.848;2024-01-30T08:43:50;3.30;99.90
37356;DHT22;48747;50.250;18.848;2024-01-30T08:45:53;3.40;99.90
37356;DHT22;48747;50.250;18.848;2024-01-30T08:47:56;3.40;99.90
37356;DHT22;48747;50.250;18.848;2024-01-30T08:49:59;3.50;99.90
37356;DHT22;48747;50.250;18.848;2024-01-30T08:52:02;3.60;99.90
37356;DHT22;48747;50.250;18.848;2024-01-30T08:54:05;3.70;99.90
37356;DHT22;48747;50.250;18.848;2024-01-30T08:56:08;3.70;99.90
37356;DHT22;48747;50.250;18.848;2024-01-30T08:58:11;3.70;99.90
37356;DHT22;48747;50.250;18.848;2024-01-30T09:00:14;3.80;99.90
37356;DHT22;48747;50.250;18.848;2024-01-30T09:02:18;3.80;99.90
37356;DHT22;48747;50.250;18.848;2024-01-30T09:04:21;3.90;99.90
37356;DHT22;48747;50.250;18.848;2024-01-30T09:06:24;4.00;99.90
37356;DHT22;48747;50.250;18.848;2024-01-30T09:08:29;4.00;99.90
37356;DHT22;48747;50.250;18.848;2024-01-30T09:10:32;4.10;99.90
37356;DHT22;48747;50.250;18.848;2024-01-30T09:12:35;4.10;99.90
37356;DHT22;48747;50.250;18.848;2024-01-30T09:14:39;4.20;99.90
37356;DHT22;48747;50.250;18.848;2024-01-30T09:16:43;4.20;99.90
37356;DHT22;48747;50.250;18.848;2024-01-30T09:18:46;4.30;99.90
37356;DHT22;48747;50.250;18.848;2024-01-30T09:20:49;4.40;99.90
37356;DHT22;48747;50.250;18.848;2024-01-30T09:22:54;4.40;99.90
37356;DHT22;48747;50.250;18.848;2024-01-30T09:24:57;4.50;99.90
37356;DHT22;48747;50.250;18.848;2024-01-30T09:27:05;4.50;99.90
37356;DHT22;48747;50.250;18.848;2024-01-30T09:29:06;4.60;99.90
37356;DHT22;48747;50.250;18.848;2024-01-30T09:31:12;4.60;99.90
37356;DHT22;48747;50.250;18.848;2024-01-30T09:33:15;4.70;99.90
37356;DHT22;48747;50.250;18.848;2024-01-30T09:35:18;4.70;99.90
37356;DHT22;48747;50.250;18.848;2024-01-30T09:37:21;4.80;99.90
37356;DHT22;48747;50.250;18.848;2024-01-30T09:39:24;4.80;99.90
37356;DHT22;48747;50.250;18.848;2024-01-30T09:41:28;4.90;99.90
37356;DHT22;48747;50.250;18.848;2024-01-30T09:43:33;5.00;99.90
37356;DHT22;48747;50.250;18.848;2024-01-30T09:45:37;5.10;99.90
37356;DHT22;48747;50.250;18.848;2024-01-30T09:47:41;5.10;99.90
37356;DHT22;48747;50.250;18.848;2024-01-30T09:49:46;5.10;99.90
37356;DHT22;48747;50.250;18.848;2024-01-30T09:51:49;5.20;99.90
37356;DHT22;48747;50.250;18.848;2024-01-30T09:53:53;5.20;99.90
37356;DHT22;48747;50.250;18.848;2024-01-30T09:55:57;5.30;99.90
37356;DHT22;48747;50.250;18.848;2024-01-30T09:58:00;5.30;99.90
37356;DHT22;48747;50.250;18.848;2024-01-30T10:00:04;5.30;99.90
37356;DHT22;48747;50.250;18.848;2024-01-30T10:02:10;5.30;99.90
37356;DHT22;48747;50.250;18.848;2024-01-30T10:04:13;5.40;99.90
37356;DHT22;48747;50.250;18.848;2024-01-30T10:06:16;5.40;99.90
37356;DHT22;48747;50.250;18.848;2024-01-30T10:08:20;5.40;99.90
37356;DHT22;48747;50.250;18.848;2024-01-30T10:10:23;5.40;99.90
37356;DHT22;48747;50.250;18.848;2024-01-30T10:12:27;5.50;99.90
37356;DHT22;48747;50.250;18.848;2024-01-30T10:14:30;5.50;99.90
37356;DHT22;48747;50.250;18.848;2024-01-30T10:16:34;5.50;99.90
37356;DHT22;48747;50.250;18.848;2024-01-30T10:18:37;5.50;99.90
37356;DHT22;48747;50.250;18.848;2024-01-30T10:20:40;5.60;99.90
37356;DHT22;48747;50.250;18.848;2024-01-30T10:22:44;5.60;99.90
37356;DHT22;48747;50.250;18.848;2024-01-30T10:24:48;5.70;99.90
37356;DHT22;48747;50.250;18.848;2024-01-30T10:26:51;5.70;99.90
37356;DHT22;48747;50.250;18.848;2024-01-30T10:28:55;5.80;99.90
37356;DHT22;48747;50.250;18.848;2024-01-30T10:30:58;5.80;99.90
37356;DHT22;48747;50.250;18.848;2024-01-30T10:33:02;5.90;99.90
37356;DHT22;48747;50.250;18.848;2024-01-30T10:35:05;5.90;99.90
37356;DHT22;48747;50.250;18.848;2024-01-30T10:37:09;5.90;99.90
37356;DHT22;48747;50.250;18.848;2024-01-30T10:39:18;5.90;99.90
37356;DHT22;48747;50.250;18.848;2024-01-30T10:41:26;6.00;99.90
37356;DHT22;48747;50.250;18.848;2024-01-30T10:43:40;6.00;99.90
37356;DHT22;48747;50.250;18.848;2024-01-30T10:45:45;6.00;99.90
37356;DHT22;48747;50.250;18.848;2024-01-30T10:47:50;6.00;99.90
37356;DHT22;48747;50.250;18.848;2024-01-30T10:49:55;6.10;99.90
37356;DHT22;48747;50.250;18.848;2024-01-30T10:52:00;6.10;99.90
37356;DHT22;48747;50.250;18.848;2024-01-30T10:54:03;6.10;99.90
37356;DHT22;48747;50.250;18.848;2024-01-30T10:56:08;6.10;99.90
37356;DHT22;48747;50.250;18.848;2024-01-30T10:58:13;6.10;99.90
37356;DHT22;48747;50.250;18.848;2024-01-30T11:00:18;6.10;99.90
37356;DHT22;48747;50.250;18.848;2024-01-30T11:02:24;6.20;99.90
37356;DHT22;48747;50.250;18.848;2024-01-30T11:04:27;6.20;99.90
37356;DHT22;48747;50.250;18.848;2024-01-30T11:06:32;6.30;99.90
37356;DHT22;48747;50.250;18.848;2024-01-30T11:08:35;6.30;99.90
37356;DHT22;48747;50.250;18.848;2024-01-30T11:10:47;6.30;99.90
37356;DHT22;48747;50.250;18.848;2024-01-30T11:12:50;6.40;99.90
37356;DHT22;48747;50.250;18.848;2024-01-30T11:15:07;6.50;99.90
37356;DHT22;48747;50.250;18.848;2024-01-30T11:17:10;6.50;99.90
37356;DHT22;48747;50.250;18.848;2024-01-30T11:19:14;6.50;99.90
37356;DHT22;48747;50.250;18.848;2024-01-30T11:21:19;6.50;99.90
37356;DHT22;48747;50.250;18.848;2024-01-30T11:23:23;6.50;99.90
37356;DHT22;48747;50.250;18.848;2024-01-30T11:25:26;6.50;99.90
37356;DHT22;48747;50.250;18.848;2024-01-30T11:27:31;6.50;99.90
37356;DHT22;48747;50.250;18.848;2024-01-30T11:29:35;6.50;99.90
37356;DHT22;48747;50.250;18.848;2024-01-30T11:31:38;6.50;99.90
37356;DHT22;48747;50.250;18.848;2024-01-30T11:33:41;6.50;99.90
37356;DHT22;48747;50.250;18.848;2024-01-30T11:35:45;6.50;99.90
37356;DHT22;48747;50.250;18.848;2024-01-30T11:37:49;6.50;99.90
37356;DHT22;48747;50.250;18.848;2024-01-30T11:39:54;6.50;99.90
37356;DHT22;48747;50.250;18.848;2024-01-30T11:41:59;6.50;99.90
37356;DHT22;48747;50.250;18.848;2024-01-30T11:44:04;6.50;99.90
37356;DHT22;48747;50.250;18.848;2024-01-30T11:46:08;6.50;99.90
37356;DHT22;48747;50.250;18.848;2024-01-30T11:48:12;6.60;99.90
37356;DHT22;48747;50.250;18.848;2024-01-30T11:50:16;6.60;99.90
37356;DHT22;48747;50.250;18.848;2024-01-30T11:52:19;6.60;99.90
37356;DHT22;48747;50.250;18.848;2024-01-30T11:54:22;6.60;99.90
37356;DHT22;48747;50.250;18.848;2024-01-30T11:56:25;6.70;99.90
37356;DHT22;48747;50.250;18.848;2024-01-30T11:58:29;6.60;99.90
37356;DHT22;48747;50.250;18.848;2024-01-30T12:00:32;6.60;99.90
37356;DHT22;48747;50.250;18.848;2024-01-30T12:02:36;6.70;99.90
37356;DHT22;48747;50.250;18.848;2024-01-30T12:04:39;6.70;99.90
37356;DHT22;48747;50.250;18.848;2024-01-30T12:06:42;6.70;99.90
37356;DHT22;48747;50.250;18.848;2024-01-30T12:09:01;6.70;99.90
37356;DHT22;48747;50.250;18.848;2024-01-30T12:11:09;6.70;99.80
37356;DHT22;48747;50.250;18.848;2024-01-30T12:13:13;6.70;99.90
37356;DHT22;48747;50.250;18.848;2024-01-30T12:15:18;6.80;99.90
37356;DHT22;48747;50.250;18.848;2024-01-30T12:17:30;6.70;99.90
37356;DHT22;48747;50.250;18.848;2024-01-30T12:19:34;6.70;99.90
37356;DHT22;48747;50.250;18.848;2024-01-30T12:21:38;6.80;99.90
37356;DHT22;48747;50.250;18.848;2024-01-30T12:23:41;6.80;99.90
37356;DHT22;48747;50.250;18.848;2024-01-30T12:25:45;6.80;99.90
37356;DHT22;48747;50.250;18.848;2024-01-30T12:27:49;6.80;98.80
37356;DHT22;48747;50.250;18.848;2024-01-30T12:30:02;6.80;99.20
37356;DHT22;48747;50.250;18.848;2024-01-30T12:32:01;6.80;99.90
37356;DHT22;48747;50.250;18.848;2024-01-30T12:34:04;6.80;99.90
37356;DHT22;48747;50.250;18.848;2024-01-30T12:36:07;6.80;99.90
37356;DHT22;48747;50.250;18.848;2024-01-30T12:38:10;6.80;99.90
37356;DHT22;48747;50.250;18.848;2024-01-30T12:40:17;6.80;99.90
37356;DHT22;48747;50.250;18.848;2024-01-30T12:42:21;6.80;99.90
37356;DHT22;48747;50.250;18.848;2024-01-30T12:44:24;6.90;99.90
37356;DHT22;48747;50.250;18.848;2024-01-30T12:46:28;6.90;99.90
37356;DHT22;48747;50.250;18.848;2024-01-30T12:48:33;6.90;99.90
37356;DHT22;48747;50.250;18.848;2024-01-30T12:50:36;6.90;99.90
37356;DHT22;48747;50.250;18.848;2024-01-30T12:52:39;6.90;99.90
37356;DHT22;48747;50.250;18.848;2024-01-30T12:54:42;6.90;99.90
37356;DHT22;48747;50.250;18.848;2024-01-30T12:56:46;6.90;99.90
37356;DHT22;48747;50.250;18.848;2024-01-30T12:58:49;6.90;99.90
37356;DHT22;48747;50.250;18.848;2024-01-30T13:00:52;6.90;99.90